Time;durP1;ratioP1;P1;durP2;ratioP2;P2;SDS_P1;SDS_P2;PMS_P1;PMS_P2;Temp;Humidity;BMP_temperature;BMP_pressure;BME280_temperature;BME280_humidity;BME280_pressure;Samples;Min_cycle;Max_cycle;Signal;HPM_P1;HPM_P2
2023/01/12 00:02:18;;;;;;;3.92;1.80;;;;;;;6.23;88.34;98361.44;4981296;28;20080;-80
2023/01/12 00:04:44;;;;;;;4.90;1.30;;;;;;;6.24;88.28;98374.31;4977705;28;20049;-81
2023/01/12 00:07:12;;;;;;;6.55;2.10;;;;;;;6.25;88.28;98375.94;4978560;28;20042;-81
2023/01/12 00:09:38;;;;;;;6.32;1.92;;;;;;;6.28;88.16;98369.56;4979556;28;20038;-80
2023/01/12 00:12:09;;;;;;;9.80;2.03;;;;;;;6.33;87.84;98378.53;4982882;28;20057;-81
2023/01/12 00:14:37;;;;;;;7.68;1.98;;;;;;;6.39;87.39;98384.88;4982819;28;20038;-81
2023/01/12 00:17:03;;;;;;;7.13;1.92;;;;;;;6.49;86.85;98380.28;4982439;28;20043;-81
2023/01/12 00:19:31;;;;;;;5.65;2.17;;;;;;;6.53;86.30;98378.16;4982474;28;20031;-81
2023/01/12 00:22:10;;;;;;;4.93;1.65;;;;;;;6.58;86.48;98371.47;4981718;28;20061;-81
2023/01/12 00:24:42;;;;;;;5.60;1.77;;;;;;;6.66;86.08;98379.28;4982033;28;20037;-81
2023/01/12 00:27:16;;;;;;;6.45;1.80;;;;;;;6.71;85.35;98378.75;4979174;28;20042;-81
2023/01/12 00:29:42;;;;;;;6.95;1.75;;;;;;;6.78;85.72;98384.94;4980119;28;20042;-81
2023/01/12 00:32:16;;;;;;;5.45;2.10;;;;;;;6.78;85.34;98381.50;4980504;28;20038;-81
2023/01/12 00:34:42;;;;;;;7.00;2.08;;;;;;;6.81;85.88;98373.34;4980609;28;20035;-81
2023/01/12 00:37:09;;;;;;;6.60;2.00;;;;;;;6.92;86.53;98383.41;4980907;28;20446;-81
2023/01/12 00:39:35;;;;;;;6.93;1.75;;;;;;;6.97;85.63;98381.13;4979364;28;20386;-81
2023/01/12 00:47:31;;;;;;;7.18;1.92;;;;;;;7.08;85.68;98383.34;4979720;28;20045;-81
2023/01/12 00:49:57;;;;;;;7.20;1.73;;;;;;;7.09;85.63;98384.97;4978964;28;20430;-81
2023/01/12 00:52:23;;;;;;;7.13;1.95;;;;;;;7.10;85.12;98386.59;4978540;28;20042;-81
2023/01/12 00:54:48;;;;;;;5.78;1.92;;;;;;;7.04;83.50;98387.28;4977315;28;20046;-81
2023/01/12 00:57:14;;;;;;;4.22;1.20;;;;;;;6.94;83.63;98381.44;4978574;28;20054;-80
2023/01/12 00:59:43;;;;;;;5.82;1.50;;;;;;;6.96;83.23;98382.09;4977526;28;20429;-79
2023/01/12 01:02:09;;;;;;;5.53;1.58;;;;;;;6.98;82.34;98377.53;4976393;28;20533;-81
2023/01/12 01:04:34;;;;;;;6.00;1.42;;;;;;;7.03;82.71;98377.03;4976932;28;20043;-80
2023/01/12 01:07:01;;;;;;;6.40;1.90;;;;;;;7.03;82.84;98383.06;4977330;28;20034;-79
2023/01/12 01:09:29;;;;;;;4.45;1.60;;;;;;;7.06;81.77;98374.88;4978880;28;20058;-80
2023/01/12 01:11:55;;;;;;;5.43;1.77;;;;;;;7.07;81.82;98373.88;4981358;28;20035;-81
2023/01/12 01:14:20;;;;;;;3.75;1.60;;;;;;;7.13;81.61;98380.22;4982572;28;20034;-81
2023/01/12 01:16:46;;;;;;;5.88;1.65;;;;;;;7.17;81.21;98377.09;4980936;28;20035;-81
2023/01/12 01:19:11;;;;;;;6.38;1.35;;;;;;;7.13;81.18;98365.38;4980897;28;20113;-81
2023/01/12 01:21:37;;;;;;;4.50;1.52;;;;;;;7.21;81.70;98380.19;4980680;28;20489;-81
2023/01/12 01:24:03;;;;;;;2.35;0.93;;;;;;;7.20;81.14;98375.97;4981250;28;20093;-81
2023/01/12 01:26:30;;;;;;;4.00;1.30;;;;;;;7.24;82.23;98380.66;4980139;28;20043;-80
2023/01/12 01:28:56;;;;;;;4.32;1.65;;;;;;;7.23;82.21;98373.81;4980491;28;20043;-81
2023/01/12 01:31:24;;;;;;;6.75;1.45;;;;;;;7.24;81.16;98380.66;4979370;28;20030;-81
2023/01/12 01:33:51;;;;;;;4.95;1.67;;;;;;;7.24;81.98;98390.28;4980018;28;20473;-81
2023/01/12 01:36:18;;;;;;;4.28;1.40;;;;;;;7.27;82.54;98376.91;4980279;28;20093;-81
2023/01/12 01:38:45;;;;;;;7.05;1.80;;;;;;;7.23;81.16;98384.25;4978985;28;20097;-81
2023/01/12 01:41:28;;;;;;;4.65;1.58;;;;;;;7.27;81.96;98373.47;4978718;28;20117;-81
2023/01/12 01:43:59;;;;;;;4.90;1.45;;;;;;;7.27;81.43;98376.09;4979642;28;20031;-80
2023/01/12 01:46:46;;;;;;;4.35;1.42;;;;;;;7.26;80.67;98385.72;4974626;28;20031;-80
2023/01/12 01:49:52;;;;;;;5.90;1.13;;;;;;;7.32;81.65;98385.03;4978360;28;20074;-81
2023/01/12 01:52:27;;;;;;;5.28;1.60;;;;;;;7.28;81.40;98377.72;4975840;28;20038;-81
2023/01/12 01:55:15;;;;;;;6.90;1.60;;;;;;;7.31;82.75;98372.94;4978089;28;20385;-81
2023/01/12 01:58:31;;;;;;;5.22;1.48;;;;;;;7.28;80.88;98373.31;4979498;28;20034;-81
2023/01/12 02:00:57;;;;;;;7.30;1.73;;;;;;;7.31;82.22;98366.91;5023718;28;20060;-81
2023/01/12 02:03:24;;;;;;;7.55;1.50;;;;;;;7.36;82.50;98364.59;5024091;28;20049;-81
2023/01/12 02:05:52;;;;;;;5.97;1.40;;;;;;;7.38;82.82;98360.06;5003371;28;20505;-81
2023/01/12 02:08:32;;;;;;;4.00;1.20;;;;;;;7.46;82.64;98365.22;4982241;28;20045;-81
2023/01/12 02:11:01;;;;;;;4.15;1.35;;;;;;;7.41;82.82;98355.28;4979884;28;20633;-81
2023/01/12 02:16:38;;;;;;;5.95;1.30;;;;;;;7.39;82.32;98359.06;5019591;28;20140;-81
2023/01/12 02:19:42;;;;;;;8.82;1.50;;;;;;;7.45;82.61;98347.94;4986810;28;20499;-81
2023/01/12 02:22:28;;;;;;;4.63;1.40;;;;;;;7.39;82.19;98346.00;4980223;28;20042;-80
2023/01/12 02:25:50;;;;;;;3.55;1.13;;;;;;;7.29;82.29;98327.16;4978413;28;20066;-81
2023/01/12 02:28:56;;;;;;;4.65;1.42;;;;;;;7.26;82.55;98328.31;4978370;28;20039;-80
2023/01/12 02:31:50;;;;;;;3.60;1.10;;;;;;;7.27;82.39;98321.31;4979817;28;20112;-81
2023/01/12 02:34:34;;;;;;;4.30;1.50;;;;;;;7.32;83.13;98338.06;4982103;28;20379;-81
2023/01/12 02:37:20;;;;;;;4.38;1.40;;;;;;;7.27;82.81;98329.94;4983693;28;20026;-81
2023/01/12 02:40:02;;;;;;;6.45;1.17;;;;;;;7.19;82.85;98333.38;4981643;28;20031;-81
2023/01/12 02:42:46;;;;;;;5.45;1.65;;;;;;;7.09;82.69;98337.22;4981998;28;20513;-81
2023/01/12 02:45:35;;;;;;;5.10;1.02;;;;;;;7.11;83.06;98340.47;4981872;28;20030;-80
2023/01/12 02:48:19;;;;;;;7.90;2.47;;;;;;;7.07;83.13;98334.75;4981596;28;20030;-81
2023/01/12 02:50:57;;;;;;;2.67;1.17;;;;;;;7.06;83.05;98322.72;4980925;28;20043;-81
2023/01/12 02:53:37;;;;;;;6.05;1.50;;;;;;;7.08;83.00;98317.34;4979152;28;20122;-81
2023/01/12 02:56:06;;;;;;;5.78;1.52;;;;;;;7.02;82.80;98321.44;4988810;28;20030;-81
2023/01/12 02:58:39;;;;;;;6.13;1.42;;;;;;;7.00;83.04;98318.19;4980215;28;20046;-81
2023/01/12 03:01:09;;;;;;;6.70;1.33;;;;;;;6.93;82.74;98320.66;4978932;28;20037;-81
2023/01/12 03:03:38;;;;;;;6.00;1.27;;;;;;;6.90;82.63;98313.19;4979584;28;20113;-81
2023/01/12 03:06:06;;;;;;;7.80;1.50;;;;;;;6.82;82.59;98304.59;4983491;28;20050;-81
2023/01/12 03:08:36;;;;;;;3.42;1.38;;;;;;;6.73;82.82;98306.44;4984225;28;20851;-81
2023/01/12 03:11:20;;;;;;;5.72;1.45;;;;;;;6.69;83.17;98311.16;4984700;28;20070;-81
2023/01/12 03:14:00;;;;;;;1.67;1.10;;;;;;;6.56;82.75;98307.47;4982754;28;20057;-81
2023/01/12 03:16:34;;;;;;;7.10;1.50;;;;;;;6.49;82.92;98303.91;4998849;28;20545;-81
2023/01/12 03:19:08;;;;;;;4.03;1.30;;;;;;;6.47;83.27;98298.84;4983093;28;20062;-80
2023/01/12 03:22:04;;;;;;;7.80;1.05;;;;;;;6.55;83.05;98306.66;4982634;28;20643;-81
2023/01/12 03:24:38;;;;;;;4.95;1.30;;;;;;;6.49;83.02;98303.91;4983902;28;20513;-80
2023/01/12 03:27:14;;;;;;;2.95;1.25;;;;;;;6.50;83.43;98302.94;4981457;28;20039;-80
2023/01/12 03:29:50;;;;;;;3.47;1.25;;;;;;;6.39;83.22;98302.31;4981097;28;20034;-81
2023/01/12 03:32:18;;;;;;;4.70;1.13;;;;;;;6.41;83.10;98309.94;4983065;28;20038;-81
2023/01/12 03:34:44;;;;;;;4.30;1.23;;;;;;;6.36;83.02;98309.66;4980712;28;20120;-81
2023/01/12 03:37:27;;;;;;;3.42;1.00;;;;;;;6.40;83.30;98309.13;4980730;28;20046;-81
2023/01/12 03:40:10;;;;;;;6.57;1.38;;;;;;;6.42;83.08;98309.81;4980791;28;20440;-81
2023/01/12 03:42:57;;;;;;;4.00;1.25;;;;;;;6.41;82.84;98299.53;4982845;28;20041;-81
2023/01/12 03:45:38;;;;;;;3.97;0.98;;;;;;;6.40;83.27;98298.72;4982852;28;20494;-81
2023/01/12 03:48:20;;;;;;;6.25;1.33;;;;;;;6.43;82.96;98289.78;4980342;28;20045;-81
2023/01/12 03:50:57;;;;;;;4.20;1.00;;;;;;;6.43;82.69;98284.56;4979545;28;20529;-81
2023/01/12 03:53:23;;;;;;;3.38;1.15;;;;;;;6.40;83.26;98285.69;4980588;28;20035;-81
2023/01/12 03:55:56;;;;;;;5.55;1.55;;;;;;;6.44;82.91;98286.19;4994960;28;20109;-81
2023/01/12 03:58:24;;;;;;;4.75;1.30;;;;;;;6.46;83.13;98284.22;4979720;28;20026;-81
2023/01/12 04:00:49;;;;;;;5.65;1.33;;;;;;;6.44;83.45;98286.19;4978078;28;20038;-81
2023/01/12 04:03:16;;;;;;;6.13;1.23;;;;;;;6.43;83.74;98287.16;4983348;28;20124;-81
2023/01/12 04:05:44;;;;;;;6.30;1.40;;;;;;;6.43;83.70;98274.13;4983161;28;20049;-81
2023/01/12 04:08:13;;;;;;;3.85;1.25;;;;;;;6.39;83.88;98276.25;4982680;28;20038;-81
2023/01/12 04:10:39;;;;;;;4.47;1.10;;;;;;;6.38;84.09;98276.44;4982582;28;20366;-81
2023/01/12 04:13:05;;;;;;;5.82;1.60;;;;;;;6.40;84.84;98277.88;4981994;28;20038;-81
2023/01/12 04:15:30;;;;;;;6.68;1.30;;;;;;;6.41;85.07;98276.88;4982809;28;20034;-81
2023/01/12 04:17:56;;;;;;;3.63;1.40;;;;;;;6.47;85.40;98280.63;4982458;28;20049;-81
2023/01/12 04:20:21;;;;;;;3.50;1.30;;;;;;;6.48;85.19;98282.28;4979517;28;20035;-81
2023/01/12 04:22:47;;;;;;;2.85;1.70;;;;;;;6.45;85.26;98272.16;4983791;28;20038;-81
2023/01/12 04:25:20;;;;;;;4.43;1.33;;;;;;;6.49;84.94;98267.44;4980890;28;20034;-81
2023/01/12 04:27:55;;;;;;;6.07;1.48;;;;;;;6.46;84.88;98273.78;4982280;28;20038;-81
2023/01/12 04:30:25;;;;;;;2.88;1.40;;;;;;;6.46;84.73;98273.78;4979784;28;20478;-80
2023/01/12 04:32:52;;;;;;;4.50;1.30;;;;;;;6.40;84.66;98264.03;4980849;28;20033;-80
2023/01/12 04:35:18;;;;;;;1.20;1.10;;;;;;;6.34;84.74;98259.50;4979810;28;20030;-81
2023/01/12 04:37:44;;;;;;;3.28;1.30;;;;;;;6.31;85.00;98265.06;4980736;28;20038;-80
2023/01/12 04:40:13;;;;;;;5.30;1.50;;;;;;;6.31;84.91;98270.28;4978558;28;20042;-81
2023/01/12 04:42:59;;;;;;;3.72;1.30;;;;;;;6.31;84.92;98262.47;4979015;28;20521;-81
2023/01/12 04:45:29;;;;;;;2.65;2.17;;;;;;;6.36;84.89;98263.59;4975580;28;20089;-81
2023/01/12 04:47:55;;;;;;;3.65;1.70;;;;;;;6.40;84.24;98254.44;4977576;28;20039;-81
2023/01/12 04:50:20;;;;;;;4.65;1.30;;;;;;;6.41;84.29;98252.63;4978818;28;20045;-81
2023/01/12 04:52:46;;;;;;;5.45;1.33;;;;;;;6.46;84.40;98252.94;4977931;28;20092;-81
2023/01/12 04:55:11;;;;;;;5.93;1.92;;;;;;;6.48;84.10;98255.38;4977647;28;20071;-81
2023/01/12 04:57:37;;;;;;;4.43;1.20;;;;;;;6.49;83.25;98252.63;4980852;28;20034;-81
2023/01/12 05:00:04;;;;;;;6.13;1.60;;;;;;;6.54;83.62;98239.91;4978644;28;20506;-81
2023/01/12 05:02:30;;;;;;;5.50;1.52;;;;;;;6.51;83.40;98229.78;4979544;28;20062;-81
2023/01/12 05:04:55;;;;;;;5.78;2.10;;;;;;;6.58;83.26;98245.56;4982887;28;20030;-80
2023/01/12 05:07:21;;;;;;;3.03;2.65;;;;;;;6.56;82.69;98240.53;4981225;28;20035;-81
2023/01/12 05:12:31;;;;;;;4.75;1.52;;;;;;;6.49;82.90;98226.56;4982821;28;20046;-81
2023/01/12 05:14:56;;;;;;;4.65;1.90;;;;;;;6.52;82.72;98231.41;4981671;28;20474;-81
2023/01/12 05:17:22;;;;;;;6.47;2.13;;;;;;;6.55;82.74;98231.09;4980430;28;20275;-81
2023/01/12 05:19:48;;;;;;;5.82;1.58;;;;;;;6.52;82.58;98231.41;4985959;28;20116;-81
2023/01/12 05:22:14;;;;;;;3.35;1.60;;;;;;;6.51;82.72;98219.38;4980230;28;20035;-81
2023/01/12 05:24:39;;;;;;;5.47;2.00;;;;;;;6.43;83.07;98222.84;4979976;28;20466;-80
2023/01/12 05:27:05;;;;;;;3.92;1.50;;;;;;;6.56;83.17;98224.91;4980187;28;20038;-81
2023/01/12 05:29:30;;;;;;;3.13;1.58;;;;;;;6.56;82.85;98222.28;4981157;28;20039;-81
2023/01/12 05:31:56;;;;;;;6.05;1.50;;;;;;;6.58;82.76;98216.91;4977732;28;20065;-81
2023/01/12 05:34:21;;;;;;;6.97;1.83;;;;;;;6.61;82.40;98214.78;4977020;28;20121;-81
2023/01/12 05:36:47;;;;;;;3.30;1.30;;;;;;;6.63;82.27;98225.81;4977380;28;20058;-81
2023/01/12 05:39:13;;;;;;;3.15;1.40;;;;;;;6.61;82.52;98212.16;4978360;28;20058;-81
2023/01/12 05:43:48;;;;;;;6.07;1.58;;;;;;;6.61;82.75;98201.75;4975730;28;20041;-81
2023/01/12 05:44:24;;;;;;;7.75;1.60;;;;;;;6.60;82.75;98209.75;4976987;28;20038;-81
2023/01/12 05:46:49;;;;;;;4.45;1.40;;;;;;;6.63;82.56;98218.00;4974163;28;20059;-80
2023/01/12 05:49:15;;;;;;;3.80;1.52;;;;;;;6.65;82.60;98216.03;4974998;28;20039;-81
2023/01/12 05:51:40;;;;;;;3.55;1.40;;;;;;;6.63;82.36;98218.00;4977640;28;20038;-80
2023/01/12 05:54:06;;;;;;;2.72;1.33;;;;;;;6.70;81.96;98223.34;4976415;28;20030;-81
2023/01/12 05:56:32;;;;;;;5.50;1.40;;;;;;;6.68;81.87;98220.91;4976540;28;20169;-81
2023/01/12 05:59:00;;;;;;;3.13;1.40;;;;;;;6.63;81.50;98204.97;4981124;28;20054;-81
2023/01/12 06:01:28;;;;;;;4.20;1.40;;;;;;;6.69;82.00;98217.31;4978889;28;20097;-81
2023/01/12 06:03:57;;;;;;;6.75;1.30;;;;;;;6.67;81.36;98221.91;4978854;28;20088;-81
2023/01/12 06:06:26;;;;;;;5.05;1.63;;;;;;;6.68;81.43;98215.69;4984026;28;20088;-81
2023/01/12 06:08:53;;;;;;;6.82;1.42;;;;;;;6.69;81.57;98222.53;4983606;28;20068;-81
2023/01/12 06:14:05;;;;;;;5.93;1.60;;;;;;;6.70;81.52;98215.53;4982452;28;20031;-81
2023/01/12 06:16:30;;;;;;;3.08;1.40;;;;;;;6.73;81.41;98201.34;4983495;28;20415;-81
2023/01/12 06:18:56;;;;;;;4.57;1.35;;;;;;;6.73;81.26;98202.16;4985596;28;20045;-81
2023/01/12 06:21:23;;;;;;;6.88;1.48;;;;;;;6.65;80.95;98205.59;4983588;28;20479;-81
2023/01/12 06:23:49;;;;;;;4.65;1.38;;;;;;;6.69;81.33;98203.47;4982571;28;20112;-81
2023/01/12 06:26:15;;;;;;;3.15;1.67;;;;;;;6.76;80.90;98195.78;4982738;28;20042;-81
2023/01/12 06:28:41;;;;;;;4.60;2.60;;;;;;;6.76;81.30;98203.59;4984833;28;20034;-81
2023/01/12 06:31:10;;;;;;;7.00;2.13;;;;;;;6.79;81.14;98203.28;4979682;28;20034;-82
2023/01/12 06:33:36;;;;;;;6.10;2.00;;;;;;;6.77;81.07;98202.63;4981464;28;20034;-81
2023/01/12 06:36:02;;;;;;;4.10;2.60;;;;;;;6.83;80.82;98196.72;4980979;28;20065;-82
2023/01/12 06:38:31;;;;;;;6.18;2.17;;;;;;;6.88;80.56;98197.81;4980829;28;20482;-81
2023/01/12 06:41:05;;;;;;;5.65;2.00;;;;;;;6.86;80.44;98181.53;4980551;28;20041;-82
2023/01/12 06:43:31;;;;;;;5.03;2.53;;;;;;;6.92;80.83;98180.03;4979959;28;20543;-82
2023/01/12 06:45:57;;;;;;;6.22;2.58;;;;;;;6.90;80.73;98174.19;4977790;28;20055;-81
2023/01/12 06:48:26;;;;;;;5.97;2.30;;;;;;;6.87;80.57;98171.91;4979494;28;20085;-82
2023/01/12 06:50:58;;;;;;;7.78;1.65;;;;;;;6.86;80.66;98168.50;4980575;28;20042;-82
2023/01/12 06:53:23;;;;;;;7.07;2.03;;;;;;;6.89;80.58;98169.94;4980301;28;20042;-81
2023/01/12 06:55:50;;;;;;;5.10;2.17;;;;;;;6.88;80.72;98178.75;4978578;28;20375;-81
2023/01/12 06:58:16;;;;;;;4.68;1.60;;;;;;;6.93;80.87;98169.44;4982296;28;20042;-81
2023/01/12 07:00:42;;;;;;;5.82;1.95;;;;;;;6.95;80.49;98171.84;4983450;28;20035;-81
2023/01/12 07:03:16;;;;;;;4.63;1.73;;;;;;;6.94;80.48;98167.63;4982696;28;20124;-82
2023/01/12 07:05:41;;;;;;;6.32;1.70;;;;;;;6.98;79.93;98168.91;4982228;28;20387;-81
2023/01/12 07:08:07;;;;;;;3.53;1.38;;;;;;;7.01;80.27;98165.94;4985639;28;20093;-81
2023/01/12 07:10:32;;;;;;;4.07;1.90;;;;;;;7.08;79.30;98169.50;4981041;28;20045;-81
2023/01/12 07:13:01;;;;;;;6.28;1.30;;;;;;;7.17;79.50;98168.41;4982445;28;20561;-81
2023/01/12 07:15:27;;;;;;;2.72;1.33;;;;;;;7.18;78.39;98167.44;4981662;28;20710;-82
2023/01/12 07:17:57;;;;;;;4.50;1.33;;;;;;;7.22;77.88;98160.06;4982313;28;20046;-81
2023/01/12 07:20:23;;;;;;;4.53;1.25;;;;;;;7.23;77.88;98161.69;4979164;28;20045;-82
2023/01/12 07:22:49;;;;;;;4.22;1.33;;;;;;;7.25;77.59;98165.72;4982974;28;20050;-81
2023/01/12 07:25:15;;;;;;;2.40;1.17;;;;;;;7.31;77.92;98179.06;4981444;28;20102;-81
2023/01/12 07:27:56;;;;;;;2.35;1.00;;;;;;;7.31;77.86;98158.19;4979837;28;20038;-81
2023/01/12 07:30:24;;;;;;;3.40;1.15;;;;;;;7.25;77.88;98149.28;4978729;28;20117;-82
2023/01/12 07:32:50;;;;;;;5.85;1.42;;;;;;;7.29;77.78;98157.56;4981252;28;20070;-82
2023/01/12 07:35:17;;;;;;;3.65;1.33;;;;;;;7.31;78.20;98168.63;4979987;28;20042;-81
2023/01/12 07:37:52;;;;;;;3.25;0.93;;;;;;;7.29;77.62;98160.97;4980742;28;20049;-81
2023/01/12 07:40:18;;;;;;;4.43;1.20;;;;;;;7.32;77.49;98160.66;4979113;28;20124;-81
2023/01/12 07:42:44;;;;;;;4.80;1.38;;;;;;;7.34;78.09;98166.50;4978909;28;20040;-81
2023/01/12 07:45:10;;;;;;;6.75;1.40;;;;;;;7.34;78.30;98163.06;4975838;28;20509;-81
2023/01/12 07:47:36;;;;;;;3.53;1.08;;;;;;;7.34;77.73;98157.84;4979257;28;20042;-81
2023/01/12 07:50:02;;;;;;;3.63;1.15;;;;;;;7.43;78.02;98151.56;4982225;28;20109;-81
2023/01/12 07:52:28;;;;;;;4.05;1.35;;;;;;;7.43;78.23;98147.16;4977213;28;20126;-81
2023/01/12 07:54:54;;;;;;;7.57;1.48;;;;;;;7.55;77.87;98144.91;4979244;28;20048;-81
2023/01/12 07:57:19;;;;;;;5.25;1.60;;;;;;;7.62;77.72;98145.84;4983298;28;20044;-81
2023/01/12 07:59:44;;;;;;;2.53;1.00;;;;;;;7.64;77.33;98149.06;4982626;28;20047;-81
2023/01/12 08:02:19;;;;;;;4.68;1.33;;;;;;;7.68;76.59;98144.31;4980637;28;20137;-81
2023/01/12 08:04:46;;;;;;;5.40;1.33;;;;;;;7.68;77.19;98139.91;4982484;28;20114;-81
2023/01/12 08:07:13;;;;;;;8.00;1.50;;;;;;;7.72;76.90;98135.09;4981485;28;20398;-81
2023/01/12 08:09:39;;;;;;;6.07;1.40;;;;;;;7.83;76.63;98128.63;4980177;28;20037;-81
2023/01/12 08:12:04;;;;;;;3.17;1.35;;;;;;;7.79;76.53;98131.59;4981966;28;20033;-81
2023/01/12 08:14:38;;;;;;;3.70;1.38;;;;;;;7.77;75.90;98135.38;4981981;28;20098;-81
2023/01/12 08:17:12;;;;;;;5.03;1.25;;;;;;;7.81;76.55;98131.44;4981287;28;20030;-82
2023/01/12 08:19:49;;;;;;;4.90;1.40;;;;;;;7.82;76.82;98129.63;4981218;28;20569;-82
2023/01/12 08:22:24;;;;;;;5.18;1.58;;;;;;;7.84;76.77;98122.41;4978600;28;20115;-81
2023/01/12 08:24:59;;;;;;;2.55;1.00;;;;;;;7.72;76.16;98130.69;4979537;28;20034;-82
2023/01/12 08:27:29;;;;;;;4.63;1.40;;;;;;;7.75;76.70;98151.25;4978468;28;20691;-82
2023/01/12 08:29:58;;;;;;;1.38;0.85;;;;;;;7.74;76.11;98160.06;4979782;28;20078;-81
2023/01/12 08:32:27;;;;;;;4.35;1.15;;;;;;;7.75;76.04;98148.63;4980016;28;20062;-82
2023/01/12 08:34:59;;;;;;;4.53;1.48;;;;;;;7.77;76.92;98149.25;4979085;28;20587;-82
2023/01/12 08:37:27;;;;;;;4.72;1.27;;;;;;;7.79;77.03;98142.03;4977378;28;20065;-82
2023/01/12 08:39:52;;;;;;;5.82;1.27;;;;;;;7.76;76.69;98137.19;4979278;28;20035;-81
2023/01/12 08:42:19;;;;;;;5.18;1.10;;;;;;;7.77;76.40;98145.81;4977680;28;20039;-81
2023/01/12 08:44:45;;;;;;;6.22;1.30;;;;;;;7.75;76.80;98130.34;4981971;28;20030;-82
2023/01/12 08:47:18;;;;;;;5.30;1.35;;;;;;;7.88;76.64;98134.13;4976057;28;20434;-82
2023/01/12 08:49:45;;;;;;;4.82;1.40;;;;;;;7.89;76.05;98125.28;4983685;28;20121;-82
2023/01/12 08:52:11;;;;;;;5.72;1.27;;;;;;;7.91;76.43;98131.94;4978468;28;20121;-81
2023/01/12 08:54:37;;;;;;;3.70;1.40;;;;;;;8.05;75.68;98120.69;4984141;28;20467;-82
2023/01/12 08:57:03;;;;;;;6.43;1.70;;;;;;;8.08;75.05;98124.72;4982347;28;20039;-81
2023/01/12 08:59:29;;;;;;;2.17;1.00;;;;;;;8.06;75.11;98118.88;4979276;28;20552;-81
2023/01/12 09:01:55;;;;;;;3.78;1.05;;;;;;;8.09;75.54;98130.75;4979022;28;20438;-81
2023/01/12 09:04:20;;;;;;;7.00;1.50;;;;;;;8.10;74.55;98135.81;4981916;28;20046;-81
2023/01/12 09:06:47;;;;;;;5.18;1.20;;;;;;;8.06;75.99;98121.50;4981595;28;20023;-82
2023/01/12 09:09:17;;;;;;;3.40;1.10;;;;;;;8.14;75.42;98126.59;4981446;28;20166;-82
2023/01/12 09:11:44;;;;;;;3.80;1.20;;;;;;;8.19;74.44;98147.78;4979708;28;20034;-82
2023/01/12 09:14:11;;;;;;;7.22;1.60;;;;;;;8.23;75.12;98130.75;4978046;28;20065;-82
2023/01/12 09:16:37;;;;;;;5.88;1.15;;;;;;;8.19;75.15;98132.09;4981062;28;20041;-82
2023/01/12 09:19:03;;;;;;;5.18;1.50;;;;;;;8.16;75.08;98116.00;4980022;28;20066;-83
2023/01/12 09:21:31;;;;;;;3.20;1.30;;;;;;;8.24;74.61;98123.72;4977789;28;20081;-82
2023/01/12 09:23:57;;;;;;;8.20;1.20;;;;;;;8.33;73.98;98126.00;4986185;28;20059;-82
2023/01/12 09:26:32;;;;;;;4.80;1.15;;;;;;;8.38;74.58;98119.47;4978050;28;20038;-82
2023/01/12 09:29:03;;;;;;;3.85;1.00;;;;;;;8.35;73.46;98109.38;4979265;28;20034;-81
2023/01/12 09:31:30;;;;;;;;;;;;;;;8.38;74.08;98124.69;4978905;28;20034;-82
2023/01/12 09:33:56;;;;;;;3.35;1.20;;;;;;;8.45;74.82;98123.75;4993878;28;19920;-82
2023/01/12 09:36:28;;;;;;;3.90;1.05;;;;;;;8.48;74.14;98123.41;4978154;28;20027;-82
2023/01/12 09:38:55;;;;;;;7.72;1.70;;;;;;;8.54;74.64;98120.03;4977828;28;20035;-82
2023/01/12 09:47:47;;;;;;;2.97;0.80;;;;;;;8.42;74.77;98125.94;4975832;28;20101;-80
2023/01/12 09:50:26;;;;;;;2.22;0.75;;;;;;;8.38;75.23;98116.84;4975910;28;20045;-81
2023/01/12 09:53:05;;;;;;;5.07;1.30;;;;;;;8.46;76.17;98112.34;4979791;28;20026;-81
2023/01/12 09:56:01;;;;;;;6.15;1.38;;;;;;;8.46;76.94;98117.56;4978046;28;20382;-81
2023/01/12 09:58:53;;;;;;;3.10;0.90;;;;;;;8.40;77.33;98123.53;4980053;28;20101;-81
2023/01/12 10:01:21;;;;;;;4.43;1.10;;;;;;;8.37;76.42;98107.41;4979824;28;20046;-81
2023/01/12 10:03:47;;;;;;;2.50;0.90;;;;;;;8.29;77.44;98103.88;4980810;28;20488;-81
2023/01/12 10:06:17;;;;;;;2.83;1.23;;;;;;;8.32;75.98;98115.75;4979971;28;20042;-81
2023/01/12 10:08:48;;;;;;;4.30;1.20;;;;;;;8.37;76.90;98104.78;4979321;28;20038;-81
2023/01/12 10:11:38;;;;;;;4.47;1.10;;;;;;;8.32;76.67;98108.72;4977535;28;20035;-81
2023/01/12 10:14:31;;;;;;;4.50;1.25;;;;;;;8.39;75.57;98108.00;4979358;28;20034;-81
2023/01/12 10:17:30;;;;;;;2.83;0.93;;;;;;;8.44;75.65;98097.81;4973390;28;20498;-81
2023/01/12 10:20:16;;;;;;;3.30;0.80;;;;;;;8.49;75.29;98101.50;4977918;28;20037;-81
2023/01/12 10:22:54;;;;;;;3.58;1.10;;;;;;;8.56;76.12;98096.31;4976159;28;20039;-81
2023/01/12 10:25:34;;;;;;;1.98;0.88;;;;;;;8.61;75.68;98098.38;4976453;28;20045;-82
2023/01/12 10:28:25;;;;;;;3.17;1.08;;;;;;;8.63;73.05;98107.66;4977512;28;20073;-81
2023/01/12 10:30:52;;;;;;;5.90;1.10;;;;;;;8.70;75.09;98079.78;4975339;28;20129;-81
2023/01/12 10:33:21;;;;;;;4.80;1.08;;;;;;;8.74;75.70;98078.41;4975766;28;20541;-81
2023/01/12 10:36:00;;;;;;;3.72;1.17;;;;;;;8.67;74.52;98090.59;4984955;28;20031;-80
2023/01/12 10:38:51;;;;;;;0.93;0.60;;;;;;;8.69;73.42;98096.44;4975864;28;20046;-80
2023/01/12 10:41:20;;;;;;;2.42;0.70;;;;;;;8.69;75.23;98106.09;4977550;28;20070;-81
2023/01/12 10:44:11;;;;;;;3.55;1.08;;;;;;;8.73;76.92;98097.69;4975894;28;20053;-81
2023/01/12 10:46:37;;;;;;;4.85;1.10;;;;;;;8.70;77.17;98103.31;4971958;28;20402;-81
2023/01/12 10:49:31;;;;;;;2.92;0.95;;;;;;;8.64;74.84;98108.50;4974617;28;20035;-80
2023/01/12 10:52:06;;;;;;;2.95;0.90;;;;;;;8.61;75.34;98087.94;4987543;28;20050;-80
2023/01/12 10:54:36;;;;;;;2.83;1.20;;;;;;;8.60;77.22;98107.22;4978648;28;20045;-81
2023/01/12 10:57:16;;;;;;;2.17;0.82;;;;;;;8.54;75.79;98098.31;4982655;28;20034;-80
2023/01/12 10:59:53;;;;;;;3.65;1.13;;;;;;;8.53;75.81;98104.56;4982189;28;20034;-81
2023/01/12 11:02:19;;;;;;;0.98;0.70;;;;;;;8.55;76.31;98115.63;4982665;28;20059;-81
2023/01/12 11:04:53;;;;;;;1.10;0.88;;;;;;;8.61;77.41;98099.19;4982458;28;20165;-82
2023/01/12 11:07:27;;;;;;;3.45;0.80;;;;;;;8.58;78.27;98094.34;4982640;28;20039;-81
2023/01/12 11:09:56;;;;;;;2.72;0.90;;;;;;;8.58;79.97;98094.34;4979993;28;20066;-81
2023/01/12 11:12:33;;;;;;;2.63;1.20;;;;;;;8.54;78.66;98082.66;4976904;28;20126;-81
2023/01/12 11:15:16;;;;;;;3.95;1.00;;;;;;;8.53;80.47;98083.66;4981379;28;20100;-81
2023/01/12 11:18:11;;;;;;;2.78;0.47;;;;;;;8.54;78.85;98077.41;4980365;28;20054;-80
2023/01/12 11:21:01;;;;;;;3.03;1.00;;;;;;;8.57;78.74;98061.34;4979006;28;20030;-80
2023/01/12 11:24:10;;;;;;;2.72;0.70;;;;;;;8.61;77.29;98067.81;4976535;28;20525;-81
2023/01/12 11:26:48;;;;;;;1.73;0.70;;;;;;;8.63;78.72;98054.56;4980762;28;20057;-81
2023/01/12 11:29:50;;;;;;;2.10;1.08;;;;;;;8.59;77.38;98051.53;4979200;28;20034;-81
2023/01/12 11:32:30;;;;;;;2.15;0.90;;;;;;;8.54;78.53;98056.50;4981329;28;20406;-80
2023/01/12 11:35:07;;;;;;;1.95;1.20;;;;;;;8.42;79.54;98047.53;4978492;28;20418;-81
2023/01/12 11:37:39;;;;;;;4.32;1.65;;;;;;;8.37;81.30;98045.47;4979651;28;20042;-81
2023/01/12 11:40:19;;;;;;;4.75;1.00;;;;;;;8.32;81.92;98051.22;4979383;28;20920;-81
2023/01/12 11:45:53;;;;;;;2.63;1.00;;;;;;;8.41;81.54;98038.09;4998435;28;20056;-81
2023/01/12 11:49:01;;;;;;;1.23;0.90;;;;;;;8.37;80.78;98052.53;4979244;28;20046;-80
2023/01/12 11:51:27;;;;;;;2.85;1.10;;;;;;;8.37;82.35;98031.59;4981433;28;20065;-82
2023/01/12 11:53:53;;;;;;;1.55;0.93;;;;;;;8.35;81.68;98034.38;4981873;28;20038;-81
2023/01/12 11:56:51;;;;;;;2.22;1.00;;;;;;;8.36;82.55;98028.19;4983954;28;20438;-82
2023/01/12 12:00:06;;;;;;;2.40;1.27;;;;;;;8.44;80.40;98029.84;4984116;28;20045;-81
2023/01/12 12:02:39;;;;;;;2.47;1.02;;;;;;;8.49;81.73;98017.84;4981998;28;20046;-81
2023/01/12 12:05:18;;;;;;;3.33;1.10;;;;;;;8.51;81.69;98010.63;4979796;28;20060;-81
2023/01/12 12:08:24;;;;;;;4.40;1.02;;;;;;;8.50;80.52;98008.19;4978723;28;20041;-81
2023/01/12 12:11:04;;;;;;;3.38;1.00;;;;;;;8.57;79.33;98009.06;4979727;28;20038;-80
2023/01/12 12:13:34;;;;;;;2.70;1.05;;;;;;;8.63;77.10;98017.97;4980647;28;20113;-81
2023/01/12 12:16:50;;;;;;;3.47;1.30;;;;;;;8.69;78.34;98012.78;4978741;28;20077;-81
2023/01/12 12:19:54;;;;;;;2.47;1.00;;;;;;;8.76;77.41;98008.44;4998244;28;20097;-80
2023/01/12 12:22:58;;;;;;;2.22;1.02;;;;;;;8.82;76.16;97994.59;4982295;28;20043;-81
2023/01/12 12:25:39;;;;;;;2.13;0.95;;;;;;;9.04;75.09;98002.38;4979248;28;20026;-80
2023/01/12 12:28:46;;;;;;;4.65;0.80;;;;;;;9.09;74.34;98002.59;4979013;28;20145;-81
2023/01/12 12:31:54;;;;;;;1.63;0.70;;;;;;;9.13;73.90;98003.84;4977929;28;20090;-80
2023/01/12 12:35:14;;;;;;;3.55;0.98;;;;;;;9.12;74.68;97994.38;4980451;28;20047;-81